Time;durP1;ratioP1;P1;durP2;ratioP2;P2;SDS_P1;SDS_P2;PMS_P1;PMS_P2;Temp;Humidity;BMP_temperature;BMP_pressure;BME280_temperature;BME280_humidity;BME280_pressure;Samples;Min_cycle;Max_cycle;Signal;HPM_P1;HPM_P2
2021/03/12 00:00:11;;;;;;;36.92;5.28;;;6.80;99.90;;;;;;2111777;28;20030;-74
2021/03/12 00:01:12;;;;;;;28.90;4.63;;;6.80;99.90;;;;;;2112076;28;20024;-74
2021/03/12 00:02:13;;;;;;;35.05;5.05;;;6.80;99.90;;;;;;2103881;28;20040;-73
2021/03/12 00:03:16;;;;;;;37.58;5.55;;;6.80;99.90;;;;;;2109383;28;20020;-72
2021/03/12 00:04:17;;;;;;;35.10;5.68;;;6.70;99.90;;;;;;2107048;28;20070;-72
2021/03/12 00:05:18;;;;;;;34.97;5.63;;;6.70;99.90;;;;;;2110370;28;20065;-73
2021/03/12 00:06:19;;;;;;;44.72;5.78;;;6.70;99.90;;;;;;2111726;28;20024;-73
2021/03/12 00:07:20;;;;;;;35.28;5.22;;;6.70;99.90;;;;;;2112512;28;20484;-72
2021/03/12 00:08:23;;;;;;;42.13;5.65;;;6.60;99.90;;;;;;2108811;28;20021;-73
2021/03/12 00:09:24;;;;;;;40.25;4.60;;;6.60;99.90;;;;;;2105244;28;20479;-72
2021/03/12 00:10:27;;;;;;;32.97;4.68;;;6.60;99.90;;;;;;2105152;28;20052;-72
2021/03/12 00:11:28;;;;;;;43.08;6.15;;;6.60;99.90;;;;;;2103606;28;20028;-73
2021/03/12 00:12:29;;;;;;;35.58;5.07;;;6.50;99.90;;;;;;2103395;28;20029;-72
2021/03/12 00:13:29;;;;;;;37.20;5.97;;;6.50;99.90;;;;;;2104917;28;20022;-72
2021/03/12 00:14:30;;;;;;;34.00;4.75;;;6.50;99.90;;;;;;2114181;28;20106;-73
2021/03/12 00:15:31;;;;;;;41.30;4.82;;;6.60;99.90;;;;;;2098106;28;20031;-73
2021/03/12 00:16:32;;;;;;;46.60;5.28;;;6.60;99.90;;;;;;2098354;28;20404;-74
2021/03/12 00:17:33;;;;;;;45.33;6.05;;;6.60;99.90;;;;;;2100398;28;20055;-73
2021/03/12 00:18:37;;;;;;;33.38;4.90;;;6.60;99.90;;;;;;2103207;28;20031;-73
2021/03/12 00:19:37;;;;;;;31.90;4.80;;;6.60;99.90;;;;;;2106669;28;20534;-73
2021/03/12 00:20:39;;;;;;;37.17;5.18;;;6.60;99.90;;;;;;2115105;28;20026;-75
2021/03/12 00:21:40;;;;;;;;;;;6.50;99.90;;;;;;2107284;28;20078;-75
2021/03/12 00:22:41;;;;;;;38.15;4.95;;;6.50;99.90;;;;;;2105741;28;19904;-73
2021/03/12 00:23:42;;;;;;;32.72;4.80;;;6.50;99.90;;;;;;2097599;28;20640;-73
2021/03/12 00:24:43;;;;;;;41.65;6.85;;;6.50;99.90;;;;;;2098383;28;20017;-72
2021/03/12 00:25:46;;;;;;;46.80;6.55;;;6.50;99.90;;;;;;2106176;28;20354;-72
2021/03/12 00:26:46;;;;;;;37.33;5.65;;;6.50;99.90;;;;;;2101944;28;20104;-71
2021/03/12 00:27:47;;;;;;;35.75;5.07;;;6.50;99.90;;;;;;2098239;28;20428;-72
2021/03/12 00:28:48;;;;;;;35.28;5.50;;;6.50;99.90;;;;;;2104463;28;20558;-73
2021/03/12 00:29:48;;;;;;;43.28;5.68;;;6.50;99.90;;;;;;2105860;28;20028;-73
2021/03/12 00:30:49;;;;;;;33.40;5.20;;;6.50;99.90;;;;;;2106897;28;20020;-75
2021/03/12 00:31:50;;;;;;;43.67;5.32;;;6.50;99.90;;;;;;2104692;28;20548;-72
2021/03/12 00:32:51;;;;;;;47.78;5.88;;;6.50;99.90;;;;;;2106436;28;20031;-73
2021/03/12 00:33:51;;;;;;;42.30;5.72;;;6.60;99.90;;;;;;2106925;28;20035;-76
2021/03/12 00:34:52;;;;;;;47.83;7.13;;;6.60;99.90;;;;;;2105075;28;20043;-74
2021/03/12 00:35:53;;;;;;;49.65;7.25;;;6.70;99.90;;;;;;2106495;28;20099;-73
2021/03/12 00:36:53;;;;;;;35.42;5.55;;;6.70;99.90;;;;;;2106326;28;20047;-74
2021/03/12 00:37:54;;;;;;;42.03;6.03;;;6.80;99.90;;;;;;2106780;28;20121;-75
2021/03/12 00:38:55;;;;;;;44.67;5.88;;;6.80;99.90;;;;;;2100327;28;20020;-73
2021/03/12 00:39:55;;;;;;;50.83;6.28;;;6.80;99.90;;;;;;2098033;28;20099;-74
2021/03/12 00:40:59;;;;;;;37.97;5.38;;;6.90;99.90;;;;;;2097329;28;20559;-73
2021/03/12 00:42:00;;;;;;;38.88;5.53;;;7.00;99.90;;;;;;2100492;28;20103;-74
2021/03/12 00:43:01;;;;;;;41.15;5.85;;;7.00;99.90;;;;;;2105939;28;20027;-73
2021/03/12 00:44:02;;;;;;;34.70;5.82;;;7.00;99.90;;;;;;2096864;28;20021;-74
2021/03/12 00:45:04;;;;;;;40.92;5.82;;;7.00;99.90;;;;;;2105621;28;20044;-74
2021/03/12 00:46:08;;;;;;;42.00;5.78;;;7.10;99.90;;;;;;2106150;28;20084;-73
2021/03/12 00:47:09;;;;;;;37.40;5.85;;;7.10;99.90;;;;;;2107284;28;20015;-73
2021/03/12 00:48:10;;;;;;;43.40;6.10;;;7.10;99.90;;;;;;2098611;28;20637;-72
2021/03/12 00:49:11;;;;;;;42.30;5.95;;;7.10;99.90;;;;;;2103551;28;20111;-72
2021/03/12 00:50:14;;;;;;;35.92;5.43;;;7.10;99.90;;;;;;2106019;28;20021;-73
2021/03/12 00:51:14;;;;;;;41.30;5.88;;;7.10;99.90;;;;;;2104390;28;20020;-75
2021/03/12 00:52:15;;;;;;;37.60;5.35;;;7.10;99.90;;;;;;2101210;28;20111;-72
2021/03/12 00:53:16;;;;;;;34.58;5.13;;;7.10;99.90;;;;;;2106264;28;20024;-71
2021/03/12 00:54:17;;;;;;;37.00;5.28;;;7.10;99.90;;;;;;2098230;28;20028;-72
2021/03/12 00:55:18;;;;;;;38.58;4.78;;;7.00;99.90;;;;;;2098249;28;20492;-71
2021/03/12 00:56:18;;;;;;;36.65;5.55;;;7.00;99.90;;;;;;2097646;28;20059;-73
2021/03/12 00:57:19;;;;;;;39.08;5.63;;;6.90;99.90;;;;;;2097184;28;20024;-71
2021/03/12 00:58:22;;;;;;;46.58;6.07;;;7.00;99.90;;;;;;2098352;28;20077;-71
2021/03/12 00:59:23;;;;;;;31.90;4.85;;;7.00;99.90;;;;;;2100458;28;20565;-70
2021/03/12 01:00:26;;;;;;;42.38;6.70;;;7.00;99.90;;;;;;2105803;28;20063;-70
2021/03/12 01:01:27;;;;;;;53.40;6.03;;;7.00;99.90;;;;;;2106732;28;20076;-70
2021/03/12 01:02:27;;;;;;;35.72;4.53;;;7.00;99.90;;;;;;2103174;28;20073;-73
2021/03/12 01:03:28;;;;;;;45.97;6.82;;;7.00;99.90;;;;;;2098396;28;20009;-77
2021/03/12 01:04:29;;;;;;;43.75;6.00;;;7.00;99.90;;;;;;2104214;28;20016;-71
2021/03/12 01:05:30;;;;;;;40.40;5.95;;;7.00;99.90;;;;;;2106477;28;20020;-71
2021/03/12 01:06:31;;;;;;;43.55;5.80;;;6.90;99.90;;;;;;2106416;28;20032;-72
2021/03/12 01:07:31;;;;;;;52.78;6.45;;;6.90;99.90;;;;;;2103143;28;20103;-72
2021/03/12 01:08:32;;;;;;;44.25;5.68;;;6.90;99.90;;;;;;2103438;28;20613;-71
2021/03/12 01:09:33;;;;;;;45.75;5.50;;;6.90;99.90;;;;;;2095635;28;20483;-72
2021/03/12 01:10:34;;;;;;;44.70;6.30;;;6.80;99.90;;;;;;2103584;28;20118;-71
2021/03/12 01:11:35;;;;;;;49.75;7.40;;;6.80;99.90;;;;;;2098551;28;20020;-74
2021/03/12 01:12:36;;;;;;;44.38;5.03;;;6.80;99.90;;;;;;2098552;28;20032;-74
2021/03/12 01:13:36;;;;;;;41.67;6.10;;;6.80;99.90;;;;;;2105078;28;20118;-73
2021/03/12 01:14:37;;;;;;;38.95;6.25;;;6.70;99.90;;;;;;2106157;28;20454;-75
2021/03/12 01:15:38;;;;;;;42.28;6.00;;;6.60;99.90;;;;;;2106388;28;20020;-73
2021/03/12 01:16:38;;;;;;;41.42;5.72;;;6.60;99.90;;;;;;2105618;28;20415;-72
2021/03/12 01:17:39;;;;;;;46.97;5.97;;;6.60;99.90;;;;;;2100324;28;20024;-73
2021/03/12 01:18:40;;;;;;;43.50;5.65;;;6.60;99.90;;;;;;2106536;28;20077;-74
2021/03/12 01:19:41;;;;;;;44.03;5.60;;;6.50;99.90;;;;;;2105292;28;20031;-73
2021/03/12 01:20:42;;;;;;;39.78;5.82;;;6.50;99.90;;;;;;2098762;28;20052;-74
2021/03/12 01:21:42;;;;;;;40.10;5.40;;;6.40;99.90;;;;;;2099990;28;20162;-75
2021/03/12 01:22:44;;;;;;;48.92;5.78;;;6.40;99.90;;;;;;2100415;28;20021;-75
2021/03/12 01:23:45;;;;;;;41.53;5.57;;;6.40;99.90;;;;;;2106689;28;20103;-73
2021/03/12 01:24:45;;;;;;;45.47;6.45;;;6.40;99.90;;;;;;2105950;28;20028;-75
2021/03/12 01:25:47;;;;;;;40.38;5.85;;;6.40;99.90;;;;;;2105735;28;20082;-74
2021/03/12 01:26:47;;;;;;;42.40;6.22;;;6.40;99.90;;;;;;2104469;28;20045;-72
2021/03/12 01:27:48;;;;;;;39.47;5.82;;;6.40;99.90;;;;;;2096941;28;20029;-72
2021/03/12 01:28:49;;;;;;;53.55;7.43;;;6.40;99.90;;;;;;2096068;28;20024;-71
2021/03/12 01:29:49;;;;;;;44.95;6.40;;;6.30;99.90;;;;;;2096017;28;20036;-72
2021/03/12 01:30:50;;;;;;;47.92;6.05;;;6.30;99.90;;;;;;2096313;28;20025;-72
2021/03/12 01:31:52;;;;;;;49.55;6.63;;;6.30;99.90;;;;;;2099108;28;20675;-71
2021/03/12 01:32:53;;;;;;;47.25;6.97;;;6.30;99.90;;;;;;2103205;28;20031;-73
2021/03/12 01:33:53;;;;;;;47.60;5.97;;;6.30;99.90;;;;;;2097635;28;20066;-72
2021/03/12 01:34:54;;;;;;;37.45;5.45;;;6.30;99.90;;;;;;2096340;28;20071;-71
2021/03/12 01:35:55;;;;;;;39.97;6.18;;;6.30;99.90;;;;;;2105738;28;20097;-72
2021/03/12 01:36:55;;;;;;;47.10;6.05;;;6.30;99.90;;;;;;2105802;28;20031;-72
2021/03/12 01:37:57;;;;;;;37.17;5.40;;;6.30;99.90;;;;;;2106650;28;20395;-71
2021/03/12 01:38:57;;;;;;;43.08;5.63;;;6.30;99.90;;;;;;2103352;28;20024;-72
2021/03/12 01:39:59;;;;;;;33.88;5.57;;;6.30;99.90;;;;;;2105353;28;20028;-72
2021/03/12 01:40:59;;;;;;;45.00;5.95;;;6.30;99.90;;;;;;2105978;28;20099;-71
2021/03/12 01:42:00;;;;;;;38.58;5.38;;;6.30;99.90;;;;;;2106353;28;20024;-72
2021/03/12 01:43:02;;;;;;;49.30;6.00;;;6.30;99.90;;;;;;2105114;28;20027;-71
2021/03/12 01:44:04;;;;;;;42.90;5.95;;;6.30;99.90;;;;;;2097042;28;20520;-72
2021/03/12 01:45:12;;;;;;;44.97;6.53;;;6.20;99.90;;;;;;2105482;28;20032;-72
2021/03/12 01:46:13;;;;;;;38.63;6.38;;;6.30;99.90;;;;;;2089964;28;20036;-73
2021/03/12 01:47:13;;;;;;;42.42;4.43;;;6.30;99.90;;;;;;2101424;28;20059;-72
2021/03/12 01:48:19;;;;;;;51.10;5.88;;;6.30;99.90;;;;;;2101551;28;20170;-72
2021/03/12 01:49:20;;;;;;;34.15;5.50;;;6.20;99.90;;;;;;2105471;28;20044;-72
2021/03/12 01:50:21;;;;;;;39.67;5.53;;;6.20;99.90;;;;;;2105569;28;20028;-71
2021/03/12 01:51:22;;;;;;;38.78;6.60;;;6.30;99.90;;;;;;2107087;28;20024;-74
2021/03/12 01:52:23;;;;;;;46.65;6.28;;;6.30;99.90;;;;;;2092979;28;20029;-72
2021/03/12 01:53:25;;;;;;;42.05;5.32;;;6.30;99.90;;;;;;2089312;28;20507;-72
2021/03/12 01:54:25;;;;;;;48.67;5.03;;;6.30;99.90;;;;;;2102942;28;20019;-72
2021/03/12 01:55:32;;;;;;;48.67;5.55;;;6.20;99.90;;;;;;2105182;28;20027;-72
2021/03/12 01:56:33;;;;;;;30.92;4.60;;;6.20;99.90;;;;;;2105012;28;20105;-73
2021/03/12 01:57:34;;;;;;;54.30;5.60;;;6.20;99.90;;;;;;2104340;28;20050;-73
2021/03/12 01:58:35;;;;;;;40.53;5.70;;;6.20;99.90;;;;;;2106345;28;20024;-72
2021/03/12 01:59:35;;;;;;;41.35;6.22;;;6.20;99.90;;;;;;2106177;28;20479;-73
2021/03/12 02:00:36;;;;;;;42.65;6.05;;;6.30;99.90;;;;;;2108041;28;20140;-72
2021/03/12 02:01:37;;;;;;;39.05;5.32;;;6.30;99.90;;;;;;2114716;28;20592;-72
2021/03/12 02:02:39;;;;;;;48.17;5.78;;;6.30;99.90;;;;;;2104205;28;20178;-72
2021/03/12 02:03:40;;;;;;;43.33;5.88;;;6.30;99.90;;;;;;2105367;28;20021;-73
2021/03/12 02:04:41;;;;;;;47.55;5.60;;;6.30;99.90;;;;;;2104742;28;20099;-74
2021/03/12 02:05:42;;;;;;;52.47;6.85;;;6.30;99.90;;;;;;2103488;28;20020;-73
2021/03/12 02:06:43;;;;;;;42.00;5.15;;;6.30;99.90;;;;;;2105126;28;20028;-73
2021/03/12 02:07:45;;;;;;;41.67;4.95;;;6.30;99.90;;;;;;2104435;28;20411;-72
2021/03/12 02:08:45;;;;;;;42.47;5.93;;;6.30;99.90;;;;;;2089175;28;20025;-73
2021/03/12 02:09:46;;;;;;;34.40;5.13;;;6.30;99.90;;;;;;2096822;28;20031;-73
2021/03/12 02:10:50;;;;;;;42.10;5.97;;;6.30;99.90;;;;;;2096156;28;20767;-73
2021/03/12 02:12:21;;;;;;;38.88;5.45;;;6.30;99.90;;;;;;2097507;28;20034;-76
2021/03/12 02:13:45;;;;;;;46.63;5.55;;;6.30;99.90;;;;;;2065315;28;20530;-72
2021/03/12 02:15:28;;;;;;;37.33;6.53;;;6.30;99.90;;;;;;2099509;28;20080;-72
2021/03/12 02:16:51;;;;;;;39.92;5.07;;;6.30;99.90;;;;;;2063748;28;20152;-73
2021/03/12 02:18:04;;;;;;;32.30;5.25;;;6.20;99.90;;;;;;2064555;28;20026;-73
2021/03/12 02:19:26;;;;;;;41.25;5.82;;;6.20;99.90;;;;;;2085756;28;20127;-73
2021/03/12 02:20:44;;;;;;;29.48;4.55;;;6.20;99.90;;;;;;2100669;28;20275;-72
2021/03/12 02:21:50;;;;;;;39.13;6.47;;;6.20;99.90;;;;;;2097810;28;20051;-72
2021/03/12 02:23:05;;;;;;;41.83;4.93;;;6.10;99.90;;;;;;2089622;28;20025;-72
2021/03/12 02:24:24;;;;;;;40.72;5.47;;;6.10;99.90;;;;;;2097372;28;20020;-73
2021/03/12 02:25:25;;;;;;;32.22;4.60;;;6.10;99.90;;;;;;2103194;28;20024;-73
2021/03/12 02:26:46;;;;;;;39.40;5.38;;;6.10;99.90;;;;;;2104724;28;20025;-73
2021/03/12 02:27:47;;;;;;;35.38;4.50;;;6.00;99.90;;;;;;2086893;28;20036;-72
2021/03/12 02:28:50;;;;;;;47.65;5.88;;;6.00;99.90;;;;;;2102901;28;20028;-71
2021/03/12 02:29:52;;;;;;;40.78;5.07;;;6.00;99.90;;;;;;2097058;28;20020;-73
2021/03/12 02:30:54;;;;;;;39.08;5.90;;;6.00;99.90;;;;;;2105246;28;20597;-72
2021/03/12 02:31:58;;;;;;;45.88;5.28;;;6.00;99.90;;;;;;2104936;28;20056;-72
2021/03/12 02:33:00;;;;;;;40.45;5.72;;;6.00;99.90;;;;;;2097411;28;20028;-72
2021/03/12 02:34:04;;;;;;;53.30;5.80;;;6.00;99.90;;;;;;2098155;28;20051;-72
2021/03/12 02:35:12;;;;;;;43.65;6.35;;;6.00;99.90;;;;;;2097359;28;20500;-71
2021/03/12 02:36:13;;;;;;;39.42;4.78;;;6.00;99.90;;;;;;2096981;28;20556;-72
2021/03/12 02:37:17;;;;;;;35.03;4.75;;;6.00;99.90;;;;;;2099870;28;20035;-72
2021/03/12 02:38:19;;;;;;;53.42;7.22;;;6.00;99.90;;;;;;2101588;28;20032;-72
2021/03/12 02:39:24;;;;;;;32.03;5.80;;;6.00;99.90;;;;;;2105232;28;20479;-72
2021/03/12 02:40:26;;;;;;;40.97;4.70;;;6.00;99.90;;;;;;2104979;28;20465;-73
2021/03/12 02:41:29;;;;;;;36.08;5.72;;;6.00;99.90;;;;;;2105337;28;20387;-72
2021/03/12 02:42:30;;;;;;;42.45;5.85;;;6.00;99.90;;;;;;2097934;28;20107;-72
2021/03/12 02:43:31;;;;;;;34.78;5.15;;;5.90;99.90;;;;;;2097040;28;20078;-71
2021/03/12 02:44:33;;;;;;;41.22;5.47;;;5.90;99.90;;;;;;2097026;28;20664;-73
2021/03/12 02:45:34;;;;;;;40.83;4.60;;;5.90;99.90;;;;;;2098356;28;20461;-73
2021/03/12 02:46:35;;;;;;;41.80;5.88;;;5.80;99.90;;;;;;2106001;28;20028;-73
2021/03/12 02:47:37;;;;;;;38.03;4.72;;;5.80;99.90;;;;;;2099415;28;20020;-73
2021/03/12 02:48:39;;;;;;;33.67;5.50;;;5.90;99.90;;;;;;2104462;28;20032;-75
2021/03/12 02:49:40;;;;;;;33.58;5.00;;;6.00;99.90;;;;;;2096938;28;20017;-72
2021/03/12 02:50:42;;;;;;;49.90;6.15;;;6.00;99.90;;;;;;2096985;28;20036;-73
2021/03/12 02:51:43;;;;;;;39.72;5.22;;;6.00;99.90;;;;;;2096937;28;20036;-74
2021/03/12 02:52:46;;;;;;;34.00;5.13;;;6.00;99.90;;;;;;2096574;28;20578;-72
2021/03/12 02:53:47;;;;;;;;;;;6.00;99.90;;;;;;2097072;28;20296;-72
2021/03/12 02:54:49;;;;;;;41.75;6.38;;;6.00;99.90;;;;;;2097067;28;19956;-72
2021/03/12 02:55:50;;;;;;;38.42;5.88;;;5.90;99.90;;;;;;2088494;28;20581;-72
2021/03/12 02:56:51;;;;;;;48.33;5.95;;;5.90;99.90;;;;;;2096947;28;20507;-72
2021/03/12 02:57:52;;;;;;;38.20;5.40;;;5.90;99.90;;;;;;2112330;28;20028;-72
2021/03/12 02:58:55;;;;;;;46.50;6.88;;;5.90;99.90;;;;;;2110566;28;20504;-72
2021/03/12 02:59:56;;;;;;;37.78;4.57;;;5.80;99.90;;;;;;2097567;28;20393;-72
2021/03/12 03:01:00;;;;;;;37.47;4.80;;;5.90;99.90;;;;;;2097845;28;20066;-72
2021/03/12 03:02:01;;;;;;;37.05;4.82;;;5.90;99.90;;;;;;2103996;28;20087;-75
2021/03/12 03:03:03;;;;;;;44.97;5.68;;;5.90;99.90;;;;;;2096614;28;20024;-71
2021/03/12 03:04:04;;;;;;;;;;;5.90;99.90;;;;;;2099622;28;20027;-72
2021/03/12 03:05:05;;;;;;;47.17;5.82;;;5.90;99.90;;;;;;2105554;28;19943;-72
2021/03/12 03:06:08;;;;;;;36.92;6.43;;;5.80;99.90;;;;;;2091542;28;20025;-72
2021/03/12 03:07:10;;;;;;;38.10;5.18;;;5.80;99.90;;;;;;2103015;28;20016;-73
2021/03/12 03:08:13;;;;;;;44.65;5.68;;;5.80;99.90;;;;;;2096958;28;20017;-72
2021/03/12 03:09:15;;;;;;;41.80;5.68;;;5.90;99.90;;;;;;2097550;28;20028;-73
2021/03/12 03:10:18;;;;;;;41.72;5.68;;;5.90;99.90;;;;;;2105096;28;20020;-72
2021/03/12 03:11:19;;;;;;;38.33;5.50;;;5.80;99.90;;;;;;2102688;28;20042;-73
2021/03/12 03:12:22;;;;;;;38.60;5.25;;;5.80;99.90;;;;;;2096519;28;20450;-72
2021/03/12 03:13:33;;;;;;;43.55;5.38;;;5.90;99.90;;;;;;2097142;28;20024;-73
2021/03/12 03:14:34;;;;;;;63.75;6.30;;;5.90;99.90;;;;;;2098956;28;20039;-72
2021/03/12 03:15:36;;;;;;;37.67;6.18;;;5.90;99.90;;;;;;2096867;28;20025;-73
2021/03/12 03:16:37;;;;;;;53.47;6.05;;;5.80;99.90;;;;;;2102199;28;20024;-72
2021/03/12 03:17:39;;;;;;;34.85;5.50;;;5.80;99.90;;;;;;2114505;28;20081;-72
2021/03/12 03:18:41;;;;;;;41.17;6.85;;;5.80;99.90;;;;;;2104566;28;20034;-72
2021/03/12 03:19:47;;;;;;;35.17;5.18;;;5.80;99.90;;;;;;2103228;28;20028;-73
2021/03/12 03:20:51;;;;;;;40.92;5.72;;;5.70;99.90;;;;;;2096930;28;20029;-76
2021/03/12 03:21:52;;;;;;;37.58;5.00;;;5.70;99.90;;;;;;2092913;28;20466;-73
2021/03/12 03:22:53;;;;;;;40.28;5.93;;;5.80;99.90;;;;;;2088425;28;20462;-72
2021/03/12 03:23:54;;;;;;;49.88;7.85;;;5.80;99.90;;;;;;2101396;28;20024;-72
2021/03/12 03:24:55;;;;;;;47.97;5.47;;;5.80;99.90;;;;;;2102346;28;20063;-73
2021/03/12 03:25:56;;;;;;;42.83;5.38;;;5.80;99.90;;;;;;2100681;28;20255;-73
2021/03/12 03:26:57;;;;;;;54.63;6.80;;;5.80;99.90;;;;;;2096781;28;20100;-73
2021/03/12 03:27:57;;;;;;;41.55;6.70;;;5.80;99.90;;;;;;2097146;28;20033;-72
2021/03/12 03:28:58;;;;;;;43.13;6.15;;;5.80;99.90;;;;;;2104050;28;20027;-72
2021/03/12 03:29:59;;;;;;;35.45;5.18;;;5.80;99.90;;;;;;2102267;28;20025;-72
2021/03/12 03:31:01;;;;;;;45.60;5.80;;;5.80;99.90;;;;;;2096257;28;20043;-72
2021/03/12 03:32:01;;;;;;;;;;;5.70;99.90;;;;;;2101283;28;20027;-72
2021/03/12 03:33:02;;;;;;;48.00;6.25;;;5.70;99.90;;;;;;2103723;28;19954;-73
2021/03/12 03:34:03;;;;;;;34.42;5.18;;;5.70;99.90;;;;;;2104005;28;20082;-72
2021/03/12 03:35:06;;;;;;;44.13;6.15;;;5.70;99.90;;;;;;2104351;28;20727;-72
2021/03/12 03:36:07;;;;;;;30.23;4.65;;;5.70;99.90;;;;;;2105486;28;20107;-72
2021/03/12 03:37:08;;;;;;;35.97;4.68;;;5.70;99.90;;;;;;2100104;28;20027;-73
2021/03/12 03:38:09;;;;;;;42.05;5.35;;;5.70;99.90;;;;;;2097022;28;20024;-72
2021/03/12 03:39:11;;;;;;;37.80;4.85;;;5.70;99.90;;;;;;2096496;28;20050;-74
2021/03/12 03:40:12;;;;;;;31.45;4.97;;;5.70;99.90;;;;;;2096213;28;20024;-72
2021/03/12 03:41:16;;;;;;;36.72;4.85;;;5.70;99.90;;;;;;2096373;28;20028;-72
2021/03/12 03:42:18;;;;;;;27.60;5.03;;;5.70;99.90;;;;;;2100196;28;20024;-71
2021/03/12 03:43:24;;;;;;;36.70;4.95;;;5.70;99.90;;;;;;2103061;28;20020;-74
2021/03/12 03:44:27;;;;;;;48.85;6.63;;;5.70;99.90;;;;;;2096213;28;20028;-74
2021/03/12 03:45:30;;;;;;;34.75;4.10;;;5.70;99.90;;;;;;2095987;28;20070;-72
2021/03/12 03:46:30;;;;;;;31.45;4.22;;;5.70;99.90;;;;;;2099866;28;20016;-72
2021/03/12 03:47:32;;;;;;;40.97;5.65;;;5.70;99.90;;;;;;2096269;28;20111;-73
2021/03/12 03:48:36;;;;;;;38.38;5.70;;;5.70;99.90;;;;;;2096630;28;20499;-73
2021/03/12 03:49:40;;;;;;;43.47;6.43;;;5.70;99.90;;;;;;2097389;28;20032;-73
2021/03/12 03:50:43;;;;;;;45.17;6.43;;;5.60;99.90;;;;;;2097433;28;20020;-73
2021/03/12 03:51:44;;;;;;;48.85;6.38;;;5.60;99.90;;;;;;2097107;28;20033;-72
2021/03/12 03:52:45;;;;;;;49.90;6.50;;;5.60;99.90;;;;;;2099908;28;20021;-73
2021/03/12 03:53:47;;;;;;;44.67;5.50;;;5.60;99.90;;;;;;2099772;28;20170;-79
2021/03/12 03:54:51;;;;;;;42.10;5.80;;;5.60;99.90;;;;;;2099554;28;20024;-75
2021/03/12 03:55:52;;;;;;;47.45;5.95;;;5.60;99.90;;;;;;2098772;28;20024;-75
2021/03/12 03:56:54;;;;;;;43.77;6.53;;;5.60;99.90;;;;;;2091680;28;20032;-75
2021/03/12 03:57:58;;;;;;;40.17;5.80;;;5.60;99.90;;;;;;2099531;28;20259;-75
2021/03/12 03:58:59;;;;;;;35.00;4.93;;;5.60;99.90;;;;;;2100196;28;20569;-72
2021/03/12 04:00:04;;;;;;;41.20;5.53;;;5.70;99.90;;;;;;2104530;28;20048;-73
2021/03/12 04:01:06;;;;;;;29.30;4.93;;;5.70;99.90;;;;;;2104560;28;20246;-73
2021/03/12 04:02:10;;;;;;;40.05;5.95;;;5.70;99.90;;;;;;2104538;28;20048;-72
2021/03/12 04:03:11;;;;;;;37.90;5.05;;;5.70;99.90;;;;;;2096977;28;20074;-73
2021/03/12 04:04:14;;;;;;;49.22;5.93;;;5.70;99.90;;;;;;2101036;28;20020;-72
2021/03/12 04:05:16;;;;;;;39.47;6.22;;;5.70;99.90;;;;;;2103951;28;20020;-73
2021/03/12 04:06:17;;;;;;;29.13;4.72;;;5.70;99.90;;;;;;2096672;28;20404;-72
2021/03/12 04:07:20;;;;;;;31.20;5.60;;;5.70;99.90;;;;;;2090059;28;20024;-71
2021/03/12 04:08:22;;;;;;;30.27;4.28;;;5.70;99.90;;;;;;2093700;28;20613;-73
2021/03/12 04:09:23;;;;;;;34.55;4.90;;;5.70;99.90;;;;;;2097226;28;20024;-75
2021/03/12 04:10:24;;;;;;;34.70;5.75;;;5.70;99.90;;;;;;2098141;28;20012;-75
2021/03/12 04:11:26;;;;;;;41.00;5.80;;;5.70;99.90;;;;;;2101077;28;20057;-73
2021/03/12 04:12:27;;;;;;;37.95;6.10;;;5.70;99.90;;;;;;2104740;28;20028;-72
2021/03/12 04:13:28;;;;;;;48.67;5.40;;;5.70;99.90;;;;;;2105054;28;20028;-73
2021/03/12 04:14:30;;;;;;;37.67;6.23;;;5.70;99.90;;;;;;2105070;28;20094;-73
2021/03/12 04:15:31;;;;;;;55.70;7.07;;;5.70;99.90;;;;;;2097313;28;20254;-72
2021/03/12 04:16:32;;;;;;;50.30;6.97;;;5.80;99.90;;;;;;2100135;28;20024;-73
2021/03/12 04:17:35;;;;;;;33.93;5.97;;;5.80;99.90;;;;;;2097401;28;20029;-73
2021/03/12 04:18:35;;;;;;;59.88;6.22;;;5.80;99.90;;;;;;2102922;28;20278;-72
2021/03/12 04:19:37;;;;;;;41.97;6.95;;;5.80;99.90;;;;;;2104803;28;20055;-72
2021/03/12 04:20:39;;;;;;;48.80;6.45;;;5.80;99.90;;;;;;2100675;28;20016;-72
2021/03/12 04:21:40;;;;;;;51.22;7.32;;;5.80;99.90;;;;;;2107775;28;20515;-72
2021/03/12 04:22:42;;;;;;;47.60;6.95;;;5.90;99.90;;;;;;2097475;28;20547;-72
2021/03/12 04:23:43;;;;;;;;;;;5.90;99.90;;;;;;2103766;28;20036;-71
2021/03/12 04:24:44;;;;;;;50.08;6.38;;;5.90;99.90;;;;;;2104689;28;19908;-72
2021/03/12 04:25:46;;;;;;;60.35;8.27;;;5.90;99.90;;;;;;2103431;28;20028;-72
2021/03/12 04:26:47;;;;;;;63.58;9.02;;;5.90;99.90;;;;;;2102560;28;20578;-72
2021/03/12 04:27:48;;;;;;;49.63;8.45;;;5.90;99.90;;;;;;2097824;28;20027;-72
2021/03/12 04:28:49;;;;;;;55.10;7.63;;;6.00;99.90;;;;;;2097462;28;20017;-72
2021/03/12 04:29:51;;;;;;;39.22;6.10;;;6.00;99.90;;;;;;2098045;28;20028;-72
2021/03/12 04:30:52;;;;;;;61.40;7.43;;;6.00;99.90;;;;;;2104740;28;20111;-73
2021/03/12 04:31:53;;;;;;;47.95;6.15;;;6.00;99.90;;;;;;2096784;28;20082;-73
2021/03/12 04:32:54;;;;;;;54.22;7.35;;;6.00;99.90;;;;;;2100719;28;20182;-73
2021/03/12 04:33:55;;;;;;;48.42;6.53;;;6.00;99.90;;;;;;2099411;28;20064;-72
2021/03/12 04:34:56;;;;;;;58.05;8.20;;;6.10;99.90;;;;;;2096579;28;20027;-72
2021/03/12 04:35:58;;;;;;;62.00;6.70;;;6.10;99.90;;;;;;2088982;28;20709;-72
2021/03/12 04:37:00;;;;;;;;;;;6.00;99.90;;;;;;2101006;28;20016;-72
2021/03/12 04:38:02;;;;;;;41.58;6.38;;;6.00;99.90;;;;;;2106260;28;19965;-73
2021/03/12 04:39:04;;;;;;;50.28;6.25;;;6.00;99.90;;;;;;2098414;28;20051;-72
2021/03/12 04:40:06;;;;;;;;;;;6.00;99.90;;;;;;2089912;28;20028;-73
2021/03/12 04:41:07;;;;;;;36.72;5.78;;;6.00;99.90;;;;;;2097017;28;19915;-73
2021/03/12 04:42:11;;;;;;;44.40;6.03;;;6.00;99.90;;;;;;2092294;28;20028;-72
2021/03/12 04:43:12;;;;;;;50.92;5.90;;;5.90;99.90;;;;;;2097302;28;20016;-73
2021/03/12 04:44:14;;;;;;;54.83;8.10;;;5.90;99.90;;;;;;2096922;28;20021;-72
2021/03/12 04:45:16;;;;;;;43.88;6.65;;;5.90;99.90;;;;;;2105274;28;20407;-72
2021/03/12 04:46:18;;;;;;;42.28;5.50;;;5.90;99.90;;;;;;2105079;28;20024;-72
2021/03/12 04:47:20;;;;;;;45.53;5.57;;;5.90;99.90;;;;;;2102216;28;20023;-72
2021/03/12 04:48:21;;;;;;;;;;;5.90;99.90;;;;;;2103783;28;20020;-72
2021/03/12 04:49:22;;;;;;;61.97;7.40;;;5.90;99.90;;;;;;2100993;28;19918;-73
2021/03/12 04:50:24;;;;;;;55.83;6.73;;;6.00;99.90;;;;;;2103257;28;20035;-73
2021/03/12 04:51:25;;;;;;;61.00;8.50;;;6.00;99.90;;;;;;2088903;28;20271;-72
2021/03/12 04:52:25;;;;;;;49.58;6.20;;;6.00;99.90;;;;;;2097037;28;20034;-73
2021/03/12 04:53:30;;;;;;;51.65;7.22;;;6.00;99.90;;;;;;2097790;28;20024;-72
2021/03/12 04:54:31;;;;;;;69.78;7.78;;;6.00;99.90;;;;;;2097498;28;20082;-72
2021/03/12 04:55:32;;;;;;;52.60;6.72;;;6.00;99.90;;;;;;2096895;28;20147;-73
2021/03/12 04:56:33;;;;;;;55.65;6.43;;;6.00;99.90;;;;;;2097468;28;20112;-73
2021/03/12 04:57:36;;;;;;;67.75;8.30;;;6.00;99.90;;;;;;2102479;28;20024;-73
2021/03/12 04:58:37;;;;;;;51.72;7.43;;;6.00;99.90;;;;;;2104499;28;20024;-73
2021/03/12 04:59:38;;;;;;;66.35;8.68;;;6.00;99.90;;;;;;2103866;28;20028;-72
2021/03/12 05:00:39;;;;;;;56.80;7.68;;;6.00;99.90;;;;;;2101716;28;20063;-73
2021/03/12 05:01:42;;;;;;;50.58;7.05;;;6.00;99.90;;;;;;2097649;28;20052;-73
2021/03/12 05:02:43;;;;;;;58.25;6.93;;;6.00;99.90;;;;;;2097559;28;20027;-73
2021/03/12 05:03:44;;;;;;;50.77;6.90;;;6.00;99.90;;;;;;2097379;28;20112;-71
2021/03/12 05:04:49;;;;;;;44.60;6.78;;;6.00;99.90;;;;;;2097141;28;20638;-71
2021/03/12 05:05:51;;;;;;;59.03;6.90;;;6.00;99.90;;;;;;2100351;28;20012;-72
2021/03/12 05:06:52;;;;;;;57.10;6.93;;;6.00;99.90;;;;;;2105322;28;20020;-71
2021/03/12 05:07:54;;;;;;;62.28;7.63;;;5.90;99.90;;;;;;2103980;28;20024;-72
2021/03/12 05:08:56;;;;;;;55.55;6.85;;;5.90;99.90;;;;;;2097670;28;20031;-74
2021/03/12 05:09:57;;;;;;;51.28;7.97;;;5.90;99.90;;;;;;2098016;28;20091;-72
2021/03/12 05:11:03;;;;;;;54.58;8.15;;;5.90;99.90;;;;;;2097851;28;20048;-72
2021/03/12 05:12:05;;;;;;;58.42;7.28;;;5.90;99.90;;;;;;2102512;28;20035;-72
2021/03/12 05:13:05;;;;;;;;;;;5.90;99.90;;;;;;2102986;28;20085;-71
2021/03/12 05:14:07;;;;;;;50.75;6.53;;;5.90;99.90;;;;;;2096987;28;19908;-71
2021/03/12 05:15:08;;;;;;;57.88;6.43;;;6.00;99.90;;;;;;2097191;28;20016;-72
2021/03/12 05:16:09;;;;;;;46.35;6.15;;;6.00;99.90;;;;;;2097861;28;20055;-71
2021/03/12 05:17:09;;;;;;;43.17;6.40;;;6.00;99.90;;;;;;2097820;28;20024;-72
2021/03/12 05:18:10;;;;;;;49.25;6.68;;;6.00;99.90;;;;;;2105217;28;20499;-72
2021/03/12 05:19:11;;;;;;;45.00;5.45;;;6.00;99.90;;;;;;2105956;28;20039;-76
2021/03/12 05:20:11;;;;;;;56.50;8.02;;;6.00;99.90;;;;;;2105477;28;20024;-73
2021/03/12 05:21:13;;;;;;;45.08;7.00;;;6.00;99.90;;;;;;2104952;28;20081;-74
2021/03/12 05:22:14;;;;;;;46.15;6.80;;;6.00;99.90;;;;;;2105545;28;20154;-72
2021/03/12 05:23:16;;;;;;;45.85;6.28;;;6.00;99.90;;;;;;2094701;28;20054;-71
2021/03/12 05:24:17;;;;;;;58.45;7.95;;;6.00;99.90;;;;;;2089520;28;20108;-72
2021/03/12 05:25:17;;;;;;;58.50;6.25;;;5.90;99.90;;;;;;2100555;28;20021;-72